sensor_id;sensor_type;location;lat;lon;timestamp;pressure;altitude;pressure_sealevel;temperature;humidity
56414;BME280;42318;48.452;19.526;2023-07-28T00:01:01;97938.50;;;22.10;59.60
56414;BME280;42318;48.452;19.526;2023-07-28T00:06:07;97927.59;;;22.10;59.14
56414;BME280;42318;48.452;19.526;2023-07-28T00:11:12;97921.06;;;22.06;59.43
56414;BME280;42318;48.452;19.526;2023-07-28T00:16:13;97925.94;;;22.09;59.50
56414;BME280;42318;48.452;19.526;2023-07-28T00:21:15;97914.50;;;22.07;59.30
56414;BME280;42318;48.452;19.526;2023-07-28T00:26:15;97910.97;;;22.07;59.33
56414;BME280;42318;48.452;19.526;2023-07-28T00:31:16;97916.72;;;22.05;59.51
56414;BME280;42318;48.452;19.526;2023-07-28T00:36:17;97903.59;;;22.02;59.19
56414;BME280;42318;48.452;19.526;2023-07-28T00:41:18;97917.53;;;22.06;59.31
56414;BME280;42318;48.452;19.526;2023-07-28T00:46:18;97916.72;;;22.05;59.36
56414;BME280;42318;48.452;19.526;2023-07-28T00:51:20;97909.06;;;22.02;59.52
56414;BME280;42318;48.452;19.526;2023-07-28T00:56:21;97893.50;;;22.03;59.28
56414;BME280;42318;48.452;19.526;2023-07-28T01:01:22;97904.41;;;22.03;59.49
56414;BME280;42318;48.452;19.526;2023-07-28T01:06:30;97898.44;;;22.01;59.46
56414;BME280;42318;48.452;19.526;2023-07-28T01:11:34;97894.06;;;22.00;59.59
56414;BME280;42318;48.452;19.526;2023-07-28T01:16:35;97894.06;;;22.00;59.57
56414;BME280;42318;48.452;19.526;2023-07-28T01:21:36;97896.81;;;22.00;59.64
56414;BME280;42318;48.452;19.526;2023-07-28T01:26:38;97895.44;;;21.97;59.60
56414;BME280;42318;48.452;19.526;2023-07-28T01:31:40;97887.84;;;21.94;59.34
56414;BME280;42318;48.452;19.526;2023-07-28T01:36:41;97884.25;;;21.99;59.26
56414;BME280;42318;48.452;19.526;2023-07-28T01:41:42;97885.34;;;21.98;59.50
56414;BME280;42318;48.452;19.526;2023-07-28T01:46:44;97884.53;;;21.97;59.46
56414;BME280;42318;48.452;19.526;2023-07-28T01:51:45;97875.81;;;21.95;59.45
56414;BME280;42318;48.452;19.526;2023-07-28T01:56:46;97887.56;;;21.95;59.38
56414;BME280;42318;48.452;19.526;2023-07-28T02:01:47;97886.75;;;21.95;59.40
56414;BME280;42318;48.452;19.526;2023-07-28T02:06:48;97888.66;;;21.94;59.25
56414;BME280;42318;48.452;19.526;2023-07-28T02:11:48;97880.47;;;21.94;59.64
56414;BME280;42318;48.452;19.526;2023-07-28T02:16:49;97879.66;;;21.94;59.22
56414;BME280;42318;48.452;19.526;2023-07-28T02:21:50;97858.69;;;21.89;59.71
56414;BME280;42318;48.452;19.526;2023-07-28T02:26:51;97849.13;;;21.92;59.47
56414;BME280;42318;48.452;19.526;2023-07-28T02:31:51;97862.75;;;21.92;59.22
56414;BME280;42318;48.452;19.526;2023-07-28T02:36:52;97855.69;;;21.91;59.50
56414;BME280;42318;48.452;19.526;2023-07-28T02:41:53;97855.69;;;21.91;59.43
56414;BME280;42318;48.452;19.526;2023-07-28T02:46:54;97857.59;;;21.90;59.42
56414;BME280;42318;48.452;19.526;2023-07-28T02:51:54;97872.31;;;21.89;59.32
56414;BME280;42318;48.452;19.526;2023-07-28T02:56:55;97866.63;;;21.86;59.36
56414;BME280;42318;48.452;19.526;2023-07-28T03:01:56;97863.31;;;21.89;59.30
56414;BME280;42318;48.452;19.526;2023-07-28T03:06:58;97867.16;;;21.88;59.51
56414;BME280;42318;48.452;19.526;2023-07-28T03:11:58;97863.91;;;21.86;59.61
56414;BME280;42318;48.452;19.526;2023-07-28T03:16:59;97858.16;;;21.87;59.76
56414;BME280;42318;48.452;19.526;2023-07-28T03:22:00;97848.34;;;21.86;59.40
56414;BME280;42318;48.452;19.526;2023-07-28T03:27:00;97861.16;;;21.86;59.43
56414;BME280;42318;48.452;19.526;2023-07-28T03:32:01;97862.28;;;21.80;59.54
56414;BME280;42318;48.452;19.526;2023-07-28T03:37:02;97869.34;;;21.86;59.68
56414;BME280;42318;48.452;19.526;2023-07-28T03:42:04;97874.81;;;21.86;59.88
56414;BME280;42318;48.452;19.526;2023-07-28T03:47:05;97891.16;;;21.86;59.91
56414;BME280;42318;48.452;19.526;2023-07-28T03:52:05;97874.28;;;21.84;59.86
56414;BME280;42318;48.452;19.526;2023-07-28T03:57:08;97882.44;;;21.84;59.37
56414;BME280;42318;48.452;19.526;2023-07-28T04:02:09;97883.56;;;21.83;59.59
56414;BME280;42318;48.452;19.526;2023-07-28T04:07:10;97885.47;;;21.82;59.37
56414;BME280;42318;48.452;19.526;2023-07-28T04:12:10;97881.91;;;21.82;59.66
56414;BME280;42318;48.452;19.526;2023-07-28T04:17:11;97880.28;;;21.81;59.54
56414;BME280;42318;48.452;19.526;2023-07-28T04:22:12;97877.03;;;21.79;59.67
56414;BME280;42318;48.452;19.526;2023-07-28T04:27:14;97878.13;;;21.78;59.45
56414;BME280;42318;48.452;19.526;2023-07-28T04:32:16;97874.03;;;21.80;59.58
56414;BME280;42318;48.452;19.526;2023-07-28T04:37:17;97867.50;;;21.76;59.81
56414;BME280;42318;48.452;19.526;2023-07-28T04:42:17;97870.47;;;21.80;59.33
56414;BME280;42318;48.452;19.526;2023-07-28T04:47:18;97868.31;;;21.77;59.62
56414;BME280;42318;48.452;19.526;2023-07-28T04:52:19;97876.22;;;21.78;59.90
56414;BME280;42318;48.452;19.526;2023-07-28T04:57:20;97876.22;;;21.78;59.36
56414;BME280;42318;48.452;19.526;2023-07-28T05:02:20;97874.59;;;21.77;59.71
56414;BME280;42318;48.452;19.526;2023-07-28T05:07:21;97877.31;;;21.77;59.38
56414;BME280;42318;48.452;19.526;2023-07-28T05:12:22;97885.50;;;21.77;59.40
56414;BME280;42318;48.452;19.526;2023-07-28T05:17:23;97895.59;;;21.77;59.63
56414;BME280;42318;48.452;19.526;2023-07-28T05:22:23;97874.88;;;21.76;59.58
56414;BME280;42318;48.452;19.526;2023-07-28T05:27:24;97883.34;;;21.74;59.55
56414;BME280;42318;48.452;19.526;2023-07-28T05:32:25;97880.31;;;21.76;59.65
56414;BME280;42318;48.452;19.526;2023-07-28T05:37:26;97871.31;;;21.75;59.76
56414;BME280;42318;48.452;19.526;2023-07-28T05:42:27;97892.31;;;21.75;59.62
56414;BME280;42318;48.452;19.526;2023-07-28T05:47:27;97892.31;;;21.75;59.57
56414;BME280;42318;48.452;19.526;2023-07-28T05:52:28;97892.31;;;21.75;59.73
56414;BME280;42318;48.452;19.526;2023-07-28T05:57:29;97887.69;;;21.75;60.04
56414;BME280;42318;48.452;19.526;2023-07-28T06:02:30;97879.78;;;21.74;59.90
56414;BME280;42318;48.452;19.526;2023-07-28T06:07:30;97881.41;;;21.75;60.20
56414;BME280;42318;48.452;19.526;2023-07-28T06:12:31;97889.31;;;21.76;60.95
56414;BME280;42318;48.452;19.526;2023-07-28T06:17:32;97881.13;;;21.76;60.81
56414;BME280;42318;48.452;19.526;2023-07-28T06:22:33;97871.84;;;21.77;60.79
56414;BME280;42318;48.452;19.526;2023-07-28T06:27:34;97872.69;;;21.78;60.65
56414;BME280;42318;48.452;19.526;2023-07-28T06:32:34;97873.78;;;21.77;60.56
56414;BME280;42318;48.452;19.526;2023-07-28T06:37:38;97890.13;;;21.77;60.71
56414;BME280;42318;48.452;19.526;2023-07-28T06:42:39;97896.41;;;21.77;60.34
56414;BME280;42318;48.452;19.526;2023-07-28T06:47:40;97888.50;;;21.76;60.35
56414;BME280;42318;48.452;19.526;2023-07-28T06:52:40;97894.78;;;21.76;60.35
56414;BME280;42318;48.452;19.526;2023-07-28T06:57:41;97888.50;;;21.76;60.24
56414;BME280;42318;48.452;19.526;2023-07-28T07:02:42;97884.97;;;21.75;60.26
56414;BME280;42318;48.452;19.526;2023-07-28T07:07:43;97896.16;;;21.74;60.31
56414;BME280;42318;48.452;19.526;2023-07-28T07:12:44;97893.16;;;21.70;60.25
56414;BME280;42318;48.452;19.526;2023-07-28T07:17:44;97889.88;;;21.73;60.25
56414;BME280;42318;48.452;19.526;2023-07-28T07:22:45;97890.69;;;21.74;60.61
56414;BME280;42318;48.452;19.526;2023-07-28T07:27:46;97898.88;;;21.74;60.38
56414;BME280;42318;48.452;19.526;2023-07-28T07:32:47;97887.97;;;21.74;60.27
56414;BME280;42318;48.452;19.526;2023-07-28T07:37:47;97877.34;;;21.72;60.25
56414;BME280;42318;48.452;19.526;2023-07-28T07:42:48;97883.63;;;21.73;60.44
56414;BME280;42318;48.452;19.526;2023-07-28T07:47:49;97882.81;;;21.72;60.41
56414;BME280;42318;48.452;19.526;2023-07-28T07:52:50;97888.25;;;21.72;60.36
56414;BME280;42318;48.452;19.526;2023-07-28T07:57:51;97876.53;;;21.72;60.13
56414;BME280;42318;48.452;19.526;2023-07-28T08:02:52;97888.25;;;21.72;60.34
56414;BME280;42318;48.452;19.526;2023-07-28T08:07:52;97881.97;;;21.72;60.17
56414;BME280;42318;48.452;19.526;2023-07-28T08:12:54;97884.72;;;21.72;60.08
56414;BME280;42318;48.452;19.526;2023-07-28T08:17:55;97880.88;;;21.73;59.99
56414;BME280;42318;48.452;19.526;2023-07-28T08:22:56;97869.97;;;21.73;60.08
56414;BME280;42318;48.452;19.526;2023-07-28T08:27:57;97880.34;;;21.71;60.39
56414;BME280;42318;48.452;19.526;2023-07-28T08:32:58;97875.72;;;21.71;60.37
56414;BME280;42318;48.452;19.526;2023-07-28T08:37:59;97873.53;;;21.73;60.19
56414;BME280;42318;48.452;19.526;2023-07-28T08:43:00;97866.97;;;21.74;59.87
56414;BME280;42318;48.452;19.526;2023-07-28T08:48:00;97865.88;;;21.75;59.91
56414;BME280;42318;48.452;19.526;2023-07-28T08:53:01;97865.88;;;21.75;60.29
56414;BME280;42318;48.452;19.526;2023-07-28T09:03:17;97868.59;;;21.75;59.82
56414;BME280;42318;48.452;19.526;2023-07-28T09:08:18;97865.06;;;21.75;59.85
56414;BME280;42318;48.452;19.526;2023-07-28T09:13:20;97863.69;;;21.77;59.93
56414;BME280;42318;48.452;19.526;2023-07-28T09:18:24;97847.03;;;21.79;59.90
56414;BME280;42318;48.452;19.526;2023-07-28T09:23:29;97847.03;;;21.79;59.54
56414;BME280;42318;48.452;19.526;2023-07-28T09:28:37;97846.75;;;21.80;59.74
56414;BME280;42318;48.452;19.526;2023-07-28T09:33:39;97842.94;;;21.81;59.60
56414;BME280;42318;48.452;19.526;2023-07-28T09:38:43;97853.56;;;21.83;59.85
56414;BME280;42318;48.452;19.526;2023-07-28T09:43:45;97841.84;;;21.82;59.70
56414;BME280;42318;48.452;19.526;2023-07-28T09:48:52;97840.72;;;21.83;59.86
56414;BME280;42318;48.452;19.526;2023-07-28T09:54:04;97836.38;;;21.82;59.66
56414;BME280;42318;48.452;19.526;2023-07-28T09:59:11;97834.19;;;21.84;59.90
56414;BME280;42318;48.452;19.526;2023-07-28T10:04:13;97834.19;;;21.84;59.73
56414;BME280;42318;48.452;19.526;2023-07-28T10:09:15;97821.13;;;21.81;59.66
56414;BME280;42318;48.452;19.526;2023-07-28T10:14:29;97823.00;;;21.86;59.84
56414;BME280;42318;48.452;19.526;2023-07-28T10:19:35;97811.25;;;21.85;59.56
56414;BME280;42318;48.452;19.526;2023-07-28T10:24:56;97821.88;;;21.87;59.73
56414;BME280;42318;48.452;19.526;2023-07-28T10:30:03;97830.06;;;21.87;59.46
56414;BME280;42318;48.452;19.526;2023-07-28T10:40:31;97813.72;;;21.87;59.42
56414;BME280;42318;48.452;19.526;2023-07-28T10:45:35;97806.34;;;21.87;59.82
56414;BME280;42318;48.452;19.526;2023-07-28T10:50:35;97812.59;;;21.88;59.65
56414;BME280;42318;48.452;19.526;2023-07-28T10:55:36;97813.13;;;21.90;59.65
56414;BME280;42318;48.452;19.526;2023-07-28T11:00:37;97795.16;;;21.89;59.63
56414;BME280;42318;48.452;19.526;2023-07-28T11:05:38;97792.41;;;21.89;59.49
56414;BME280;42318;48.452;19.526;2023-07-28T11:10:40;97785.06;;;21.89;59.54
56414;BME280;42318;48.452;19.526;2023-07-28T11:15:41;97779.59;;;21.89;59.65
56414;BME280;42318;48.452;19.526;2023-07-28T11:20:42;97786.38;;;21.92;59.73
56414;BME280;42318;48.452;19.526;2023-07-28T11:25:46;97801.66;;;21.93;59.67
56414;BME280;42318;48.452;19.526;2023-07-28T11:30:47;97790.75;;;21.93;59.57
56414;BME280;42318;48.452;19.526;2023-07-28T11:35:48;97793.19;;;21.94;59.52
56414;BME280;42318;48.452;19.526;2023-07-28T11:40:50;97800.56;;;21.94;59.20
56414;BME280;42318;48.452;19.526;2023-07-28T11:45:51;97789.66;;;21.94;59.48
56414;BME280;42318;48.452;19.526;2023-07-28T11:50:52;97786.91;;;21.94;59.28
56414;BME280;42318;48.452;19.526;2023-07-28T11:55:56;97780.38;;;21.95;59.24
56414;BME280;42318;48.452;19.526;2023-07-28T12:00:57;97780.38;;;21.95;59.42
56414;BME280;42318;48.452;19.526;2023-07-28T12:06:04;97770.28;;;21.95;59.40
56414;BME280;42318;48.452;19.526;2023-07-28T12:11:14;97763.72;;;21.97;59.26
56414;BME280;42318;48.452;19.526;2023-07-28T12:16:38;97759.06;;;21.97;59.64
56414;BME280;42318;48.452;19.526;2023-07-28T12:21:40;97753.63;;;21.97;59.15
56414;BME280;42318;48.452;19.526;2023-07-28T12:26:40;97746.53;;;21.96;59.35
56414;BME280;42318;48.452;19.526;2023-07-28T12:31:41;97738.59;;;22.00;59.09
56414;BME280;42318;48.452;19.526;2023-07-28T12:36:42;97739.41;;;22.00;59.22
56414;BME280;42318;48.452;19.526;2023-07-28T12:41:43;97730.41;;;22.00;59.13
56414;BME280;42318;48.452;19.526;2023-07-28T12:46:45;97728.50;;;22.00;59.49
56414;BME280;42318;48.452;19.526;2023-07-28T12:51:46;97713.22;;;21.99;59.56
56414;BME280;42318;48.452;19.526;2023-07-28T12:56:47;97721.94;;;22.01;59.21
56414;BME280;42318;48.452;19.526;2023-07-28T13:01:49;97715.94;;;21.99;59.28
56414;BME280;42318;48.452;19.526;2023-07-28T13:06:49;97722.75;;;22.02;59.49
56414;BME280;42318;48.452;19.526;2023-07-28T13:11:50;97721.94;;;22.01;59.38
56414;BME280;42318;48.452;19.526;2023-07-28T13:16:51;97716.47;;;22.01;59.37
56414;BME280;42318;48.452;19.526;2023-07-28T13:21:52;97717.59;;;22.00;59.35
56414;BME280;42318;48.452;19.526;2023-07-28T13:26:52;97712.66;;;22.02;59.64
56414;BME280;42318;48.452;19.526;2023-07-28T13:31:58;97716.47;;;22.01;59.34
56414;BME280;42318;48.452;19.526;2023-07-28T13:37:00;97708.59;;;22.00;59.62
56414;BME280;42318;48.452;19.526;2023-07-28T13:42:01;97712.66;;;22.02;59.31
56414;BME280;42318;48.452;19.526;2023-07-28T13:47:02;97717.88;;;21.99;59.65
56414;BME280;42318;48.452;19.526;2023-07-28T13:52:03;97720.31;;;22.00;59.17
56414;BME280;42318;48.452;19.526;2023-07-28T13:57:04;97725.75;;;22.00;59.25
56414;BME280;42318;48.452;19.526;2023-07-28T14:02:05;97728.50;;;22.00;59.62
56414;BME280;42318;48.452;19.526;2023-07-28T14:07:06;97724.13;;;21.99;59.45
56414;BME280;42318;48.452;19.526;2023-07-28T14:12:07;97720.31;;;22.00;59.28
56414;BME280;42318;48.452;19.526;2023-07-28T14:17:08;97721.97;;;21.96;59.74
56414;BME280;42318;48.452;19.526;2023-07-28T14:22:09;97749.50;;;22.00;59.48
56414;BME280;42318;48.452;19.526;2023-07-28T14:27:10;97775.97;;;21.99;59.37
56414;BME280;42318;48.452;19.526;2023-07-28T14:32:10;97785.78;;;22.00;59.74
56414;BME280;42318;48.452;19.526;2023-07-28T14:37:11;97791.22;;;22.00;59.76
56414;BME280;42318;48.452;19.526;2023-07-28T14:42:12;97795.06;;;21.99;59.62
56414;BME280;42318;48.452;19.526;2023-07-28T14:47:13;97778.69;;;21.99;59.72
56414;BME280;42318;48.452;19.526;2023-07-28T14:52:13;97782.53;;;21.98;59.51
56414;BME280;42318;48.452;19.526;2023-07-28T14:57:14;97793.44;;;21.98;59.67
56414;BME280;42318;48.452;19.526;2023-07-28T15:02:16;97779.78;;;21.98;59.71
56414;BME280;42318;48.452;19.526;2023-07-28T15:07:16;97787.16;;;21.98;59.57
56414;BME280;42318;48.452;19.526;2023-07-28T15:12:19;97804.34;;;21.98;59.66
56414;BME280;42318;48.452;19.526;2023-07-28T15:17:20;97787.16;;;21.98;59.66
56414;BME280;42318;48.452;19.526;2023-07-28T15:22:21;97779.25;;;21.96;59.73
56414;BME280;42318;48.452;19.526;2023-07-28T15:27:22;97772.47;;;21.93;59.58
56414;BME280;42318;48.452;19.526;2023-07-28T15:32:22;97780.88;;;21.97;59.44
56414;BME280;42318;48.452;19.526;2023-07-28T15:37:23;97779.25;;;21.96;59.49
56414;BME280;42318;48.452;19.526;2023-07-28T15:42:24;97777.06;;;21.98;59.73
56414;BME280;42318;48.452;19.526;2023-07-28T15:47:25;97774.63;;;21.97;59.93
56414;BME280;42318;48.452;19.526;2023-07-28T15:52:27;97780.88;;;21.97;59.34
56414;BME280;42318;48.452;19.526;2023-07-28T15:57:27;97761.78;;;21.97;59.65
56414;BME280;42318;48.452;19.526;2023-07-28T16:02:28;97768.63;;;21.94;59.83
56414;BME280;42318;48.452;19.526;2023-07-28T16:07:29;97761.78;;;21.97;59.83
56414;BME280;42318;48.452;19.526;2023-07-28T16:12:31;97753.63;;;21.97;59.66
56414;BME280;42318;48.452;19.526;2023-07-28T16:17:31;97760.69;;;21.98;59.32
56414;BME280;42318;48.452;19.526;2023-07-28T16:22:32;97759.06;;;21.97;59.42
56414;BME280;42318;48.452;19.526;2023-07-28T16:31:53;97746.00;;;21.94;59.38
56414;BME280;42318;48.452;19.526;2023-07-28T16:36:54;97745.44;;;21.97;59.53
56414;BME280;42318;48.452;19.526;2023-07-28T16:41:55;97762.63;;;21.98;59.67
56414;BME280;42318;48.452;19.526;2023-07-28T16:46:56;97757.97;;;21.98;59.43
56414;BME280;42318;48.452;19.526;2023-07-28T16:51:57;97766.97;;;21.99;59.50
56414;BME280;42318;48.452;19.526;2023-07-28T16:56:57;97759.88;;;21.98;59.53
56414;BME280;42318;48.452;19.526;2023-07-28T17:01:58;97771.59;;;21.98;59.54
56414;BME280;42318;48.452;19.526;2023-07-28T17:06:59;97773.22;;;21.99;59.50
56414;BME280;42318;48.452;19.526;2023-07-28T17:12:00;97774.34;;;21.98;59.42
56414;BME280;42318;48.452;19.526;2023-07-28T17:17:01;97782.53;;;21.98;59.58
56414;BME280;42318;48.452;19.526;2023-07-28T17:22:02;97795.59;;;22.01;59.90
56414;BME280;42318;48.452;19.526;2023-07-28T17:27:03;97800.75;;;22.03;60.41
56414;BME280;42318;48.452;19.526;2023-07-28T17:32:05;97799.41;;;22.05;60.25
56414;BME280;42318;48.452;19.526;2023-07-28T17:37:06;97792.56;;;22.08;60.56
56414;BME280;42318;48.452;19.526;2023-07-28T17:42:07;97797.50;;;22.06;60.46
56414;BME280;42318;48.452;19.526;2023-07-28T17:47:08;97806.47;;;22.11;60.57
56414;BME280;42318;48.452;19.526;2023-07-28T17:52:09;97815.47;;;22.12;60.88
56414;BME280;42318;48.452;19.526;2023-07-28T17:57:09;97819.00;;;22.12;60.96
56414;BME280;42318;48.452;19.526;2023-07-28T18:02:10;97819.00;;;22.12;60.42
56414;BME280;42318;48.452;19.526;2023-07-28T18:07:12;97820.63;;;22.13;60.73
56414;BME280;42318;48.452;19.526;2023-07-28T18:12:12;97820.88;;;22.17;61.46
56414;BME280;42318;48.452;19.526;2023-07-28T18:17:13;97814.09;;;22.14;61.70
56414;BME280;42318;48.452;19.526;2023-07-28T18:22:15;97814.66;;;22.11;62.39
56414;BME280;42318;48.452;19.526;2023-07-28T18:27:15;97819.28;;;22.11;62.25
56414;BME280;42318;48.452;19.526;2023-07-28T18:32:16;97821.47;;;22.09;62.13
56414;BME280;42318;48.452;19.526;2023-07-28T18:37:17;97820.66;;;22.08;61.78
56414;BME280;42318;48.452;19.526;2023-07-28T18:42:18;97823.66;;;22.07;61.62
56414;BME280;42318;48.452;19.526;2023-07-28T18:47:19;97825.59;;;22.06;61.57
56414;BME280;42318;48.452;19.526;2023-07-28T18:52:20;97830.22;;;22.06;61.11
56414;BME280;42318;48.452;19.526;2023-07-28T18:57:21;97829.69;;;22.04;61.12
56414;BME280;42318;48.452;19.526;2023-07-28T19:02:22;97837.59;;;22.05;60.96
56414;BME280;42318;48.452;19.526;2023-07-28T19:07:22;97844.97;;;22.05;60.88
56414;BME280;42318;48.452;19.526;2023-07-28T19:12:23;97858.88;;;22.03;60.94
56414;BME280;42318;48.452;19.526;2023-07-28T19:17:24;97860.50;;;22.04;60.98
56414;BME280;42318;48.452;19.526;2023-07-28T19:22:25;97858.03;;;22.03;60.99
56414;BME280;42318;48.452;19.526;2023-07-28T19:27:25;97850.72;;;21.98;60.71
56414;BME280;42318;48.452;19.526;2023-07-28T19:32:26;97855.88;;;22.00;61.25
56414;BME280;42318;48.452;19.526;2023-07-28T19:37:27;97861.88;;;22.02;60.75
56414;BME280;42318;48.452;19.526;2023-07-28T19:42:28;97857.78;;;21.99;60.67
56414;BME280;42318;48.452;19.526;2023-07-28T19:47:28;97856.69;;;22.00;60.68
56414;BME280;42318;48.452;19.526;2023-07-28T19:52:29;97854.53;;;21.97;60.93
56414;BME280;42318;48.452;19.526;2023-07-28T19:57:30;97858.59;;;22.00;60.54
56414;BME280;42318;48.452;19.526;2023-07-28T20:02:31;97848.81;;;21.99;60.85
56414;BME280;42318;48.452;19.526;2023-07-28T20:07:31;97860.00;;;21.97;60.60
56414;BME280;42318;48.452;19.526;2023-07-28T20:12:32;97860.81;;;21.98;60.52
56414;BME280;42318;48.452;19.526;2023-07-28T20:17:33;97867.09;;;21.98;60.41
56414;BME280;42318;48.452;19.526;2023-07-28T20:22:34;97869.56;;;21.94;60.66
56414;BME280;42318;48.452;19.526;2023-07-28T20:27:42;97890.00;;;21.97;60.67
56414;BME280;42318;48.452;19.526;2023-07-28T20:32:44;97882.91;;;21.96;60.56
56414;BME280;42318;48.452;19.526;2023-07-28T20:37:45;97883.72;;;21.97;60.65
56414;BME280;42318;48.452;19.526;2023-07-28T20:42:46;97885.63;;;21.96;60.67
56414;BME280;42318;48.452;19.526;2023-07-28T20:47:47;97872.00;;;21.96;60.55
56414;BME280;42318;48.452;19.526;2023-07-28T20:52:48;97873.09;;;21.95;60.13
56414;BME280;42318;48.452;19.526;2023-07-28T20:57:49;97872.00;;;21.96;60.25
56414;BME280;42318;48.452;19.526;2023-07-28T21:02:50;97884.00;;;21.95;60.35
56414;BME280;42318;48.452;19.526;2023-07-28T21:07:50;97887.84;;;21.94;60.75
56414;BME280;42318;48.452;19.526;2023-07-28T21:12:52;97880.47;;;21.94;60.37
56414;BME280;42318;48.452;19.526;2023-07-28T21:17:52;97892.19;;;21.95;60.11
56414;BME280;42318;48.452;19.526;2023-07-28T21:22:53;97885.09;;;21.94;60.19
56414;BME280;42318;48.452;19.526;2023-07-28T21:27:54;97885.69;;;21.91;60.31
56414;BME280;42318;48.452;19.526;2023-07-28T21:33:00;97889.75;;;21.93;60.24
56414;BME280;42318;48.452;19.526;2023-07-28T21:38:02;97892.75;;;21.92;60.48
56414;BME280;42318;48.452;19.526;2023-07-28T21:43:02;97892.47;;;21.93;60.26
56414;BME280;42318;48.452;19.526;2023-07-28T21:48:03;97895.50;;;21.92;60.35
56414;BME280;42318;48.452;19.526;2023-07-28T21:53:04;97896.31;;;21.92;60.65
56414;BME280;42318;48.452;19.526;2023-07-28T21:58:05;97892.75;;;21.92;60.61
56414;BME280;42318;48.452;19.526;2023-07-28T22:03:06;97895.50;;;21.92;60.19
56414;BME280;42318;48.452;19.526;2023-07-28T22:08:11;97896.31;;;21.92;60.43
56414;BME280;42318;48.452;19.526;2023-07-28T22:13:12;97892.75;;;21.92;60.39
56414;BME280;42318;48.452;19.526;2023-07-28T22:18:13;97890.31;;;21.90;60.49
56414;BME280;42318;48.452;19.526;2023-07-28T22:23:14;97887.59;;;21.90;60.48
56414;BME280;42318;48.452;19.526;2023-07-28T22:28:14;97889.50;;;21.90;60.38
56414;BME280;42318;48.452;19.526;2023-07-28T22:33:15;97890.59;;;21.89;60.51
56414;BME280;42318;48.452;19.526;2023-07-28T22:38:16;97884.34;;;21.88;60.50
56414;BME280;42318;48.452;19.526;2023-07-28T22:43:17;97879.69;;;21.89;60.46
56414;BME280;42318;48.452;19.526;2023-07-28T22:48:18;97878.06;;;21.88;60.30
56414;BME280;42318;48.452;19.526;2023-07-28T22:53:19;97872.34;;;21.84;60.29
56414;BME280;42318;48.452;19.526;2023-07-28T22:58:20;97874.25;;;21.89;60.57
56414;BME280;42318;48.452;19.526;2023-07-28T23:03:20;97875.91;;;21.85;60.54
56414;BME280;42318;48.452;19.526;2023-07-28T23:08:21;97876.44;;;21.87;60.21
56414;BME280;42318;48.452;19.526;2023-07-28T23:13:22;97879.97;;;21.87;60.37
56414;BME280;42318;48.452;19.526;2023-07-28T23:18:23;97881.88;;;21.87;60.03
56414;BME280;42318;48.452;19.526;2023-07-28T23:23:24;97884.63;;;21.87;60.09
56414;BME280;42318;48.452;19.526;2023-07-28T23:28:24;97885.19;;;21.84;60.03
56414;BME280;42318;48.452;19.526;2023-07-28T23:33:25;97888.44;;;21.86;60.41
56414;BME280;42318;48.452;19.526;2023-07-28T23:38:26;97891.97;;;21.86;60.34
56414;BME280;42318;48.452;19.526;2023-07-28T23:43:27;97894.72;;;21.86;60.20
56414;BME280;42318;48.452;19.526;2023-07-28T23:48:29;97890.34;;;21.85;60.11
56414;BME280;42318;48.452;19.526;2023-07-28T23:53:30;97890.34;;;21.85;60.07
56414;BME280;42318;48.452;19.526;2023-07-28T23:58:31;97886.81;;;21.85;60.03
